createdAt,value
2022-11-20T00:02:30.383Z,25.60
2022-11-20T00:07:39.362Z,25.30
2022-11-20T00:12:47.561Z,7.90
2022-11-20T00:17:55.531Z,29.30
2022-11-20T00:23:02.773Z,28.30
2022-11-20T00:28:10.145Z,27.80
2022-11-20T00:33:17.494Z,28.80
2022-11-20T00:43:31.837Z,31.20
2022-11-20T00:48:39.367Z,29.00
2022-11-20T00:53:47.186Z,14.90
2022-11-20T00:58:54.584Z,17.50
2022-11-20T01:04:03.098Z,43.00
2022-11-20T01:09:13.226Z,36.50
2022-11-20T01:14:22.490Z,37.00
2022-11-20T01:19:29.761Z,39.40
2022-11-20T01:24:37.323Z,19.60
2022-11-20T01:29:44.511Z,26.40
2022-11-20T01:34:52.033Z,35.20
2022-11-20T01:39:59.178Z,34.50
2022-11-20T01:50:30.655Z,36.20
2022-11-20T01:55:43.680Z,36.40
2022-11-20T02:00:51.092Z,35.60
2022-11-20T02:06:05.050Z,35.50
2022-11-20T02:11:14.064Z,34.80
2022-11-20T02:16:25.997Z,34.80
2022-11-20T02:21:42.514Z,34.00
2022-11-20T02:27:01.805Z,32.50
2022-11-20T02:32:20.894Z,35.00
2022-11-20T02:37:33.442Z,40.50
2022-11-20T02:42:41.222Z,34.30
2022-11-20T02:47:48.447Z,36.30
2022-11-20T02:52:56.137Z,34.40
2022-11-20T02:58:03.571Z,20.30
2022-11-20T03:03:10.909Z,32.10
2022-11-20T03:08:18.630Z,31.60
2022-11-20T03:13:27.171Z,30.90
2022-11-20T03:18:34.616Z,23.40
2022-11-20T03:23:43.199Z,25.40
2022-11-20T03:28:53.573Z,36.20
2022-11-20T03:34:02.736Z,35.60
2022-11-20T03:39:11.049Z,33.90
2022-11-20T03:44:18.551Z,33.20
2022-11-20T03:49:26.062Z,31.80
2022-11-20T03:54:33.562Z,27.50
2022-11-20T03:59:40.973Z,31.20
2022-11-20T04:04:48.791Z,33.90
2022-11-20T04:09:56.494Z,35.90
2022-11-20T04:15:03.684Z,36.10
2022-11-20T04:20:13.311Z,32.40
2022-11-20T04:25:21.076Z,32.00
2022-11-20T04:30:28.872Z,34.10
2022-11-20T04:35:39.957Z,31.90
2022-11-20T04:40:49.557Z,31.20
2022-11-20T04:45:59.111Z,33.80
2022-11-20T04:51:09.550Z,31.50
2022-11-20T04:56:17.942Z,35.20
2022-11-20T05:01:26.919Z,31.80
2022-11-20T05:06:34.548Z,31.30
2022-11-20T05:11:41.716Z,29.80
2022-11-20T05:16:49.333Z,29.30
2022-11-20T05:21:56.950Z,28.70
2022-11-20T05:27:04.177Z,29.90
2022-11-20T05:32:11.696Z,33.20
2022-11-20T05:37:19.498Z,32.50
2022-11-20T05:42:33.025Z,30.40
2022-11-20T05:47:40.559Z,32.60
2022-11-20T05:52:47.930Z,30.30
2022-11-20T05:57:56.477Z,31.40
2022-11-20T06:03:04.308Z,29.70
2022-11-20T06:08:11.917Z,30.60
2022-11-20T06:13:19.799Z,30.80
2022-11-20T06:18:29.014Z,29.30
2022-11-20T06:23:37.482Z,31.60
2022-11-20T06:28:44.916Z,32.00
2022-11-20T06:33:53.006Z,30.60
2022-11-20T06:39:00.499Z,31.10
2022-11-20T06:44:08.900Z,31.50
2022-11-20T06:49:16.136Z,29.30
2022-11-20T06:54:23.650Z,27.00
2022-11-20T06:59:31.363Z,27.90
2022-11-20T07:04:38.607Z,32.10
2022-11-20T07:09:46.782Z,36.20
2022-11-20T07:14:54.595Z,35.00
2022-11-20T07:30:54.715Z,30.20
2022-11-20T07:36:00.389Z,29.90
2022-11-20T07:41:04.430Z,30.50
2022-11-20T07:46:08.175Z,29.40
2022-11-20T07:51:11.815Z,24.80
2022-11-20T07:56:16.169Z,27.10
2022-11-20T08:01:20.838Z,31.20
2022-11-20T08:06:25.354Z,37.50
2022-11-20T08:11:47.483Z,41.60
2022-11-20T08:16:51.825Z,38.50
2022-11-20T08:21:56.610Z,39.90
2022-11-20T08:27:00.775Z,42.80
2022-11-20T08:32:05.113Z,40.10
2022-11-20T08:37:16.925Z,31.80
2022-11-20T08:42:20.721Z,35.40
2022-11-20T08:47:24.552Z,34.80
2022-11-20T08:52:28.477Z,34.60
2022-11-20T08:57:34.001Z,39.40
2022-11-20T09:02:40.421Z,42.90
2022-11-20T09:07:44.589Z,41.90
2022-11-20T09:12:52.137Z,44.10
2022-11-20T09:17:58.661Z,42.20
2022-11-20T09:23:02.745Z,40.70
2022-11-20T09:28:06.596Z,32.20
2022-11-20T09:33:10.379Z,36.70
2022-11-20T09:38:15.167Z,25.50
2022-11-20T09:43:25.357Z,23.30
2022-11-20T09:48:43.393Z,20.40
2022-11-20T09:54:01.771Z,42.00
2022-11-20T09:59:11.803Z,42.50
2022-11-20T10:04:18.792Z,42.90
2022-11-20T10:09:32.274Z,43.10
2022-11-20T10:14:50.205Z,36.60
2022-11-20T10:20:14.929Z,25.30
2022-11-20T10:25:23.244Z,38.30
2022-11-20T10:30:28.187Z,40.10
2022-11-20T10:35:39.709Z,27.30
2022-11-20T10:40:46.474Z,29.10
2022-11-20T10:45:58.439Z,37.80
2022-11-20T10:51:12.438Z,38.70
2022-11-20T10:56:22.300Z,40.70
2022-11-20T11:01:27.648Z,38.90
2022-11-20T11:06:36.940Z,37.10
2022-11-20T11:11:41.193Z,35.10
2022-11-20T11:16:53.329Z,33.10
2022-11-20T11:21:57.884Z,36.40
2022-11-20T11:27:29.422Z,18.80
2022-11-20T11:32:33.057Z,31.40
2022-11-20T11:37:39.498Z,34.60
2022-11-20T11:42:47.652Z,36.70
2022-11-20T11:47:53.518Z,38.30
2022-11-20T11:53:09.215Z,38.30
2022-11-20T11:58:28.638Z,29.00
2022-11-20T12:03:37.485Z,37.90
2022-11-20T12:08:48.567Z,36.70
2022-11-20T12:14:02.156Z,30.40
2022-11-20T12:19:11.480Z,34.00
2022-11-20T12:24:43.750Z,30.70
2022-11-20T12:29:58.616Z,24.90
2022-11-20T12:35:13.547Z,33.60
2022-11-20T12:40:36.615Z,30.90
2022-11-20T12:46:15.825Z,32.50
2022-11-20T12:52:12.185Z,31.50
2022-11-20T12:57:24.512Z,29.30
2022-11-20T13:02:36.820Z,31.80
2022-11-20T13:07:43.221Z,33.00
2022-11-20T13:12:50.721Z,28.60
2022-11-20T13:17:58.833Z,31.80
2022-11-20T13:23:02.815Z,30.20
2022-11-20T13:28:30.567Z,31.60
2022-11-20T13:38:47.498Z,32.80
2022-11-20T13:43:53.085Z,33.60
2022-11-20T13:49:08.157Z,35.40
2022-11-20T13:54:54.756Z,34.60
2022-11-20T14:00:05.394Z,33.20
2022-11-20T14:05:20.666Z,33.50
2022-11-20T14:10:31.420Z,34.50
2022-11-20T14:15:41.848Z,33.80
2022-11-20T14:20:50.000Z,32.70
2022-11-20T14:25:54.163Z,36.80
2022-11-20T14:30:58.951Z,37.30
2022-11-20T14:36:02.815Z,36.00
2022-11-20T14:41:17.420Z,36.50
2022-11-20T14:46:22.800Z,34.90
2022-11-20T14:51:32.115Z,33.90
2022-11-20T14:56:36.007Z,31.10
2022-11-20T15:01:39.529Z,33.80
2022-11-20T15:06:52.931Z,33.10
2022-11-20T15:11:58.559Z,32.70
2022-11-20T15:17:02.212Z,38.10
2022-11-20T15:22:13.640Z,44.50
2022-11-20T15:27:17.360Z,43.30
2022-11-20T15:32:22.109Z,43.70
2022-11-20T15:37:29.830Z,46.80
2022-11-20T15:42:34.534Z,46.90
2022-11-20T15:47:38.715Z,54.50
2022-11-20T15:52:42.830Z,52.70
2022-11-20T16:07:53.098Z,48.10
2022-11-20T16:13:17.845Z,49.40
2022-11-20T16:18:25.981Z,47.70
2022-11-20T16:23:34.302Z,47.70
2022-11-20T16:28:42.136Z,52.30
2022-11-20T16:33:53.934Z,52.60
2022-11-20T16:39:03.192Z,48.80
2022-11-20T16:44:12.644Z,50.60
2022-11-20T16:49:20.337Z,45.00
2022-11-20T16:54:28.078Z,30.80
2022-11-20T16:59:35.764Z,47.20
2022-11-20T17:04:43.178Z,50.60
2022-11-20T17:09:52.223Z,51.80
2022-11-20T17:15:00.146Z,52.70
2022-11-20T17:20:09.901Z,50.30
2022-11-20T17:25:17.294Z,51.00
2022-11-20T17:30:25.116Z,48.70
2022-11-20T17:35:32.603Z,44.10
2022-11-20T17:40:39.710Z,48.70
2022-11-20T17:45:47.232Z,45.90
2022-11-20T17:50:54.330Z,47.30
2022-11-20T18:01:25.760Z,51.00
2022-11-20T18:06:33.652Z,52.00
2022-11-20T18:11:43.251Z,47.90
2022-11-20T18:16:52.125Z,49.00
2022-11-20T18:22:01.478Z,45.70
2022-11-20T18:27:10.695Z,43.90
2022-11-20T18:32:18.020Z,50.10
2022-11-20T18:37:28.311Z,42.70
2022-11-20T18:42:55.979Z,48.40
2022-11-20T18:48:03.197Z,52.70
2022-11-20T18:58:16.651Z,52.30
2022-11-20T19:03:24.275Z,48.30
2022-11-20T19:08:31.634Z,50.80
2022-11-20T19:18:45.921Z,47.00
2022-11-20T19:23:56.780Z,49.70
2022-11-20T19:29:06.937Z,46.00
2022-11-20T19:34:14.226Z,43.80
2022-11-20T19:44:26.979Z,35.60
2022-11-20T19:49:34.392Z,15.90
2022-11-20T19:54:42.005Z,52.20
2022-11-20T19:59:49.493Z,48.80
2022-11-20T20:04:57.224Z,50.20
2022-11-20T20:10:04.277Z,48.30
2022-11-20T20:15:12.853Z,42.20
2022-11-20T20:20:22.607Z,48.50
2022-11-20T20:25:30.216Z,49.60
2022-11-20T20:30:39.020Z,52.40
2022-11-20T20:35:47.115Z,45.90
2022-11-20T20:40:54.889Z,47.50
2022-11-20T20:46:02.401Z,45.70
2022-11-20T21:01:29.067Z,39.80
2022-11-20T21:06:37.736Z,40.30
2022-11-20T21:11:45.510Z,41.60
2022-11-20T21:17:28.902Z,45.20
2022-11-20T21:22:36.318Z,48.20
2022-11-20T21:27:40.385Z,51.10
2022-11-20T21:32:44.278Z,46.60
2022-11-20T21:37:48.477Z,45.20
2022-11-20T21:42:55.020Z,43.90
2022-11-20T21:47:58.884Z,51.00
2022-11-20T21:53:02.813Z,37.40
2022-11-20T21:58:06.673Z,38.60
2022-11-20T22:13:40.522Z,27.30
2022-11-20T22:18:48.966Z,43.70
2022-11-20T22:23:56.800Z,42.40
2022-11-20T22:29:04.163Z,51.20
2022-11-20T22:34:13.640Z,50.70
2022-11-20T22:39:23.108Z,51.20
2022-11-20T22:44:30.275Z,50.60
2022-11-20T22:57:59.731Z,39.20
2022-11-20T23:03:07.241Z,39.30
2022-11-20T23:08:15.172Z,51.90
2022-11-20T23:13:22.593Z,51.90
2022-11-20T23:18:29.774Z,43.40
2022-11-20T23:23:37.076Z,37.10
2022-11-20T23:28:45.449Z,35.30
2022-11-20T23:33:53.030Z,33.80
2022-11-20T23:39:00.235Z,46.00
2022-11-20T23:49:13.160Z,56.00
2022-11-20T23:54:20.672Z,57.80
2022-11-20T23:59:27.881Z,50.30
